sensor_id;sensor_type;location;lat;lon;timestamp;pressure;altitude;pressure_sealevel;temperature;humidity
63954;BME280;50128;52.094;5.232;2023-03-15T00:01:53;99690.0;;;-4.99;100.0
63954;BME280;50128;52.094;5.232;2023-03-15T00:03:29;99689.0;;;-5.03;100.0
63954;BME280;50128;52.094;5.232;2023-03-15T00:05:06;99691.0;;;-4.98;100.0
63954;BME280;50128;52.094;5.232;2023-03-15T00:08:19;99698.0;;;-4.88;100.0
63954;BME280;50128;52.094;5.232;2023-03-15T00:09:56;99698.0;;;-4.83;100.0
63954;BME280;50128;52.094;5.232;2023-03-15T00:11:33;99701.0;;;-4.8;100.0
63954;BME280;50128;52.094;5.232;2023-03-15T00:14:47;99703.0;;;-4.78;100.0
63954;BME280;50128;52.094;5.232;2023-03-15T00:16:24;99698.0;;;-4.76;100.0
63954;BME280;50128;52.094;5.232;2023-03-15T00:18:01;99701.0;;;-4.83;100.0
63954;BME280;50128;52.094;5.232;2023-03-15T00:19:36;99700.0;;;-4.79;100.0
63954;BME280;50128;52.094;5.232;2023-03-15T00:22:50;99693.0;;;-4.92;100.0
63954;BME280;50128;52.094;5.232;2023-03-15T00:24:26;99694.0;;;-4.93;100.0
63954;BME280;50128;52.094;5.232;2023-03-15T00:26:02;99690.0;;;-5.04;100.0
63954;BME280;50128;52.094;5.232;2023-03-15T00:29:15;99695.0;;;-5.02;100.0
63954;BME280;50128;52.094;5.232;2023-03-15T00:31:01;99695.0;;;-5.13;100.0
63954;BME280;50128;52.094;5.232;2023-03-15T00:32:38;99697.0;;;-5.12;100.0
63954;BME280;50128;52.094;5.232;2023-03-15T00:34:15;99700.0;;;-5.14;100.0
63954;BME280;50128;52.094;5.232;2023-03-15T00:37:27;99702.0;;;-5.22;100.0
63954;BME280;50128;52.094;5.232;2023-03-15T00:39:04;99706.0;;;-5.25;100.0
63954;BME280;50128;52.094;5.232;2023-03-15T00:40:40;99705.0;;;-5.17;100.0
63954;BME280;50128;52.094;5.232;2023-03-15T00:43:52;99707.0;;;-5.22;100.0
63954;BME280;50128;52.094;5.232;2023-03-15T00:45:29;99708.0;;;-5.32;100.0
63954;BME280;50128;52.094;5.232;2023-03-15T00:47:04;99713.0;;;-5.33;100.0
63954;BME280;50128;52.094;5.232;2023-03-15T00:50:17;99710.0;;;-5.39;100.0
63954;BME280;50128;52.094;5.232;2023-03-15T00:51:54;99713.0;;;-5.43;100.0
63954;BME280;50128;52.094;5.232;2023-03-15T00:53:30;99715.0;;;-5.35;100.0
63954;BME280;50128;52.094;5.232;2023-03-15T00:55:10;99715.0;;;-5.41;100.0
63954;BME280;50128;52.094;5.232;2023-03-15T00:58:23;99717.0;;;-5.41;100.0
63954;BME280;50128;52.094;5.232;2023-03-15T00:59:59;99723.0;;;-5.45;100.0
63954;BME280;50128;52.094;5.232;2023-03-15T01:01:36;99733.0;;;-5.47;100.0
63954;BME280;50128;52.094;5.232;2023-03-15T01:04:48;99730.0;;;-5.5;100.0
63954;BME280;50128;52.094;5.232;2023-03-15T01:06:26;99744.0;;;-5.44;100.0
63954;BME280;50128;52.094;5.232;2023-03-15T01:08:04;99740.0;;;-5.35;100.0
63954;BME280;50128;52.094;5.232;2023-03-15T01:09:39;99740.0;;;-5.32;100.0
63954;BME280;50128;52.094;5.232;2023-03-15T01:12:54;99745.0;;;-5.4;100.0
63954;BME280;50128;52.094;5.232;2023-03-15T01:14:31;99744.0;;;-5.47;100.0
63954;BME280;50128;52.094;5.232;2023-03-15T01:16:08;99741.0;;;-5.47;100.0
63954;BME280;50128;52.094;5.232;2023-03-15T01:19:22;99747.0;;;-5.47;100.0
63954;BME280;50128;52.094;5.232;2023-03-15T01:20:59;99749.0;;;-5.44;100.0
63954;BME280;50128;52.094;5.232;2023-03-15T01:22:35;99752.0;;;-5.45;100.0
63954;BME280;50128;52.094;5.232;2023-03-15T01:25:51;99757.0;;;-5.47;100.0
63954;BME280;50128;52.094;5.232;2023-03-15T01:27:28;99758.0;;;-5.44;100.0
63954;BME280;50128;52.094;5.232;2023-03-15T01:29:04;99758.0;;;-5.43;100.0
63954;BME280;50128;52.094;5.232;2023-03-15T01:30:40;99759.0;;;-5.47;100.0
63954;BME280;50128;52.094;5.232;2023-03-15T01:34:01;99762.0;;;-5.45;100.0
63954;BME280;50128;52.094;5.232;2023-03-15T01:35:37;99762.0;;;-5.48;100.0
63954;BME280;50128;52.094;5.232;2023-03-15T01:37:13;99768.0;;;-5.49;100.0
63954;BME280;50128;52.094;5.232;2023-03-15T01:40:26;99768.0;;;-5.4;100.0
63954;BME280;50128;52.094;5.232;2023-03-15T01:42:02;99768.0;;;-5.41;100.0
63954;BME280;50128;52.094;5.232;2023-03-15T01:43:39;99775.0;;;-5.49;100.0
63954;BME280;50128;52.094;5.232;2023-03-15T01:45:52;99776.0;;;-5.53;100.0
63954;BME280;50128;52.094;5.232;2023-03-15T01:47:31;99780.0;;;-5.47;100.0
63954;BME280;50128;52.094;5.232;2023-03-15T01:50:49;99785.0;;;-5.44;100.0
63954;BME280;50128;52.094;5.232;2023-03-15T01:52:29;99783.0;;;-5.49;100.0
63954;BME280;50128;52.094;5.232;2023-03-15T01:54:09;99785.0;;;-5.47;100.0
63954;BME280;50128;52.094;5.232;2023-03-15T01:55:53;99790.0;;;-5.43;100.0
63954;BME280;50128;52.094;5.232;2023-03-15T01:59:15;99793.0;;;-5.44;100.0
63954;BME280;50128;52.094;5.232;2023-03-15T02:00:55;99788.0;;;-5.47;100.0
63954;BME280;50128;52.094;5.232;2023-03-15T02:02:31;99787.0;;;-5.49;100.0
63954;BME280;50128;52.094;5.232;2023-03-15T02:04:11;99786.0;;;-5.53;100.0
63954;BME280;50128;52.094;5.232;2023-03-15T02:07:32;99787.0;;;-5.57;100.0
63954;BME280;50128;52.094;5.232;2023-03-15T02:09:09;99790.0;;;-5.59;100.0
63954;BME280;50128;52.094;5.232;2023-03-15T02:10:48;99794.0;;;-5.66;100.0
63954;BME280;50128;52.094;5.232;2023-03-15T02:12:27;99790.0;;;-5.73;100.0
63954;BME280;50128;52.094;5.232;2023-03-15T02:15:45;99798.0;;;-5.73;100.0
63954;BME280;50128;52.094;5.232;2023-03-15T02:17:27;99800.0;;;-5.73;100.0
63954;BME280;50128;52.094;5.232;2023-03-15T02:19:15;99803.0;;;-5.76;100.0
63954;BME280;50128;52.094;5.232;2023-03-15T02:21:02;99801.0;;;-5.78;100.0
63954;BME280;50128;52.094;5.232;2023-03-15T02:24:36;99803.0;;;-5.73;100.0
63954;BME280;50128;52.094;5.232;2023-03-15T02:26:20;99805.0;;;-5.77;100.0
63954;BME280;50128;52.094;5.232;2023-03-15T02:28:01;99807.0;;;-5.82;100.0
63954;BME280;50128;52.094;5.232;2023-03-15T02:29:40;99811.0;;;-5.77;100.0
63954;BME280;50128;52.094;5.232;2023-03-15T02:31:16;99813.0;;;-5.78;100.0
63954;BME280;50128;52.094;5.232;2023-03-15T02:34:31;99812.0;;;-5.78;100.0
63954;BME280;50128;52.094;5.232;2023-03-15T02:36:10;99814.0;;;-5.85;100.0
63954;BME280;50128;52.094;5.232;2023-03-15T02:37:52;99817.0;;;-5.87;100.0
63954;BME280;50128;52.094;5.232;2023-03-15T02:41:04;99822.0;;;-5.89;100.0
63954;BME280;50128;52.094;5.232;2023-03-15T02:42:41;99826.0;;;-5.92;100.0
63954;BME280;50128;52.094;5.232;2023-03-15T02:44:21;99830.0;;;-6.01;100.0
63954;BME280;50128;52.094;5.232;2023-03-15T02:45:59;99825.0;;;-5.99;100.0
63954;BME280;50128;52.094;5.232;2023-03-15T02:49:14;99828.0;;;-6.05;100.0
63954;BME280;50128;52.094;5.232;2023-03-15T02:50:53;99838.0;;;-6.0;100.0
63954;BME280;50128;52.094;5.232;2023-03-15T02:52:29;99844.0;;;-6.01;100.0
63954;BME280;50128;52.094;5.232;2023-03-15T02:55:41;99841.0;;;-5.98;100.0
63954;BME280;50128;52.094;5.232;2023-03-15T02:57:18;99847.0;;;-5.94;100.0
63954;BME280;50128;52.094;5.232;2023-03-15T02:58:55;99853.0;;;-5.94;100.0
63954;BME280;50128;52.094;5.232;2023-03-15T03:02:07;99857.0;;;-5.88;100.0
63954;BME280;50128;52.094;5.232;2023-03-15T03:03:45;99860.0;;;-5.78;100.0
63954;BME280;50128;52.094;5.232;2023-03-15T03:05:22;99862.0;;;-5.86;100.0
63954;BME280;50128;52.094;5.232;2023-03-15T03:06:58;99870.0;;;-5.88;100.0
63954;BME280;50128;52.094;5.232;2023-03-15T03:10:14;99870.0;;;-5.88;100.0
63954;BME280;50128;52.094;5.232;2023-03-15T03:11:52;99874.0;;;-5.91;100.0
63954;BME280;50128;52.094;5.232;2023-03-15T03:13:28;99880.0;;;-5.98;100.0
63954;BME280;50128;52.094;5.232;2023-03-15T03:16:42;99886.0;;;-6.02;100.0
63954;BME280;50128;52.094;5.232;2023-03-15T03:18:18;99888.0;;;-6.09;100.0
63954;BME280;50128;52.094;5.232;2023-03-15T03:19:54;99890.0;;;-6.16;100.0
63954;BME280;50128;52.094;5.232;2023-03-15T03:21:31;99890.0;;;-6.21;100.0
63954;BME280;50128;52.094;5.232;2023-03-15T03:24:44;99894.0;;;-6.28;100.0
63954;BME280;50128;52.094;5.232;2023-03-15T03:26:20;99900.0;;;-6.3;100.0
63954;BME280;50128;52.094;5.232;2023-03-15T03:27:56;99905.0;;;-6.31;100.0
63954;BME280;50128;52.094;5.232;2023-03-15T03:31:17;99905.0;;;-6.33;100.0
63954;BME280;50128;52.094;5.232;2023-03-15T03:32:53;99907.0;;;-6.36;100.0
63954;BME280;50128;52.094;5.232;2023-03-15T03:34:29;99907.0;;;-6.44;100.0
63954;BME280;50128;52.094;5.232;2023-03-15T03:36:06;99913.0;;;-6.43;100.0
63954;BME280;50128;52.094;5.232;2023-03-15T03:39:18;99922.0;;;-6.44;100.0
63954;BME280;50128;52.094;5.232;2023-03-15T03:40:55;99923.0;;;-6.49;100.0
63954;BME280;50128;52.094;5.232;2023-03-15T03:42:31;99925.0;;;-6.48;100.0
63954;BME280;50128;52.094;5.232;2023-03-15T03:45:43;99935.0;;;-6.51;100.0
63954;BME280;50128;52.094;5.232;2023-03-15T03:47:20;99940.0;;;-6.57;100.0
63954;BME280;50128;52.094;5.232;2023-03-15T03:48:55;99947.0;;;-6.53;100.0
63954;BME280;50128;52.094;5.232;2023-03-15T03:52:08;99950.0;;;-6.58;100.0
63954;BME280;50128;52.094;5.232;2023-03-15T03:53:44;99947.0;;;-6.57;100.0
63954;BME280;50128;52.094;5.232;2023-03-15T03:55:20;99946.0;;;-6.51;100.0
63954;BME280;50128;52.094;5.232;2023-03-15T03:58:32;99946.0;;;-6.51;100.0
63954;BME280;50128;52.094;5.232;2023-03-15T04:00:11;99944.0;;;-6.52;100.0
63954;BME280;50128;52.094;5.232;2023-03-15T04:01:48;99942.0;;;-6.51;100.0
63954;BME280;50128;52.094;5.232;2023-03-15T04:03:25;99949.0;;;-6.57;100.0
63954;BME280;50128;52.094;5.232;2023-03-15T04:06:37;99950.0;;;-6.62;100.0
63954;BME280;50128;52.094;5.232;2023-03-15T04:08:14;99958.0;;;-6.62;100.0
63954;BME280;50128;52.094;5.232;2023-03-15T04:09:50;99958.0;;;-6.62;100.0
63954;BME280;50128;52.094;5.232;2023-03-15T04:13:02;99958.0;;;-6.57;100.0
63954;BME280;50128;52.094;5.232;2023-03-15T04:14:38;99958.0;;;-6.61;100.0
63954;BME280;50128;52.094;5.232;2023-03-15T04:16:14;99962.0;;;-6.57;100.0
63954;BME280;50128;52.094;5.232;2023-03-15T04:19:28;99965.0;;;-6.67;100.0
63954;BME280;50128;52.094;5.232;2023-03-15T04:21:04;99971.0;;;-6.65;100.0
63954;BME280;50128;52.094;5.232;2023-03-15T04:22:41;99976.0;;;-6.72;100.0
63954;BME280;50128;52.094;5.232;2023-03-15T04:24:17;99980.0;;;-6.68;100.0
63954;BME280;50128;52.094;5.232;2023-03-15T04:27:29;99981.0;;;-6.69;100.0
63954;BME280;50128;52.094;5.232;2023-03-15T04:29:08;99988.0;;;-6.71;100.0
63954;BME280;50128;52.094;5.232;2023-03-15T04:30:47;99991.0;;;-6.72;100.0
63954;BME280;50128;52.094;5.232;2023-03-15T04:34:00;99993.0;;;-6.64;100.0
63954;BME280;50128;52.094;5.232;2023-03-15T04:37:13;99995.0;;;-6.74;100.0
63954;BME280;50128;52.094;5.232;2023-03-15T04:40:26;100003.0;;;-6.76;100.0
63954;BME280;50128;52.094;5.232;2023-03-15T04:42:03;100005.0;;;-6.81;100.0
63954;BME280;50128;52.094;5.232;2023-03-15T04:43:39;100002.0;;;-6.78;100.0
63954;BME280;50128;52.094;5.232;2023-03-15T04:45:17;100008.0;;;-6.83;100.0
63954;BME280;50128;52.094;5.232;2023-03-15T04:48:31;100011.0;;;-6.83;100.0
63954;BME280;50128;52.094;5.232;2023-03-15T04:50:08;100009.0;;;-6.83;100.0
63954;BME280;50128;52.094;5.232;2023-03-15T04:51:44;100012.0;;;-6.78;100.0
63954;BME280;50128;52.094;5.232;2023-03-15T04:54:56;100015.0;;;-6.81;100.0
63954;BME280;50128;52.094;5.232;2023-03-15T04:56:32;100013.0;;;-6.88;100.0
63954;BME280;50128;52.094;5.232;2023-03-15T05:01:24;100024.0;;;-6.76;100.0
63954;BME280;50128;52.094;5.232;2023-03-15T05:03:03;100023.0;;;-6.75;100.0
63954;BME280;50128;52.094;5.232;2023-03-15T05:04:39;100031.0;;;-6.8;100.0
63954;BME280;50128;52.094;5.232;2023-03-15T05:06:16;100031.0;;;-6.79;100.0
63954;BME280;50128;52.094;5.232;2023-03-15T05:09:28;100038.0;;;-6.75;100.0
63954;BME280;50128;52.094;5.232;2023-03-15T05:11:05;100039.0;;;-6.71;100.0
63954;BME280;50128;52.094;5.232;2023-03-15T05:12:41;100040.0;;;-6.68;100.0
63954;BME280;50128;52.094;5.232;2023-03-15T05:15:53;100044.0;;;-6.73;100.0
63954;BME280;50128;52.094;5.232;2023-03-15T05:17:29;100042.0;;;-6.68;100.0
63954;BME280;50128;52.094;5.232;2023-03-15T05:19:05;100048.0;;;-6.63;100.0
63954;BME280;50128;52.094;5.232;2023-03-15T05:20:41;100053.0;;;-6.64;100.0
63954;BME280;50128;52.094;5.232;2023-03-15T05:23:53;100051.0;;;-6.61;100.0
63954;BME280;50128;52.094;5.232;2023-03-15T05:25:30;100053.0;;;-6.54;100.0
63954;BME280;50128;52.094;5.232;2023-03-15T05:27:06;100059.0;;;-6.53;100.0
63954;BME280;50128;52.094;5.232;2023-03-15T05:30:18;100062.0;;;-6.39;100.0
63954;BME280;50128;52.094;5.232;2023-03-15T05:31:54;100061.0;;;-6.4;100.0
63954;BME280;50128;52.094;5.232;2023-03-15T05:33:30;100065.0;;;-6.39;100.0
63954;BME280;50128;52.094;5.232;2023-03-15T05:36:44;100066.0;;;-6.33;100.0
63954;BME280;50128;52.094;5.232;2023-03-15T05:38:20;100067.0;;;-6.38;100.0
63954;BME280;50128;52.094;5.232;2023-03-15T05:39:56;100077.0;;;-6.37;100.0
63954;BME280;50128;52.094;5.232;2023-03-15T05:43:08;100080.0;;;-6.36;100.0
63954;BME280;50128;52.094;5.232;2023-03-15T05:44:45;100081.0;;;-6.26;100.0
63954;BME280;50128;52.094;5.232;2023-03-15T05:46:22;100088.0;;;-6.24;100.0
63954;BME280;50128;52.094;5.232;2023-03-15T05:47:58;100091.0;;;-6.12;100.0
63954;BME280;50128;52.094;5.232;2023-03-15T05:51:11;100100.0;;;-6.03;100.0
63954;BME280;50128;52.094;5.232;2023-03-15T05:52:49;100102.0;;;-5.9;100.0
63954;BME280;50128;52.094;5.232;2023-03-15T05:54:25;100103.0;;;-5.77;100.0
63954;BME280;50128;52.094;5.232;2023-03-15T05:57:37;100109.0;;;-5.82;100.0
63954;BME280;50128;52.094;5.232;2023-03-15T05:59:13;100113.0;;;-5.75;100.0
63954;BME280;50128;52.094;5.232;2023-03-15T06:00:49;100112.0;;;-5.76;100.0
63954;BME280;50128;52.094;5.232;2023-03-15T06:04:02;100120.0;;;-5.68;100.0
63954;BME280;50128;52.094;5.232;2023-03-15T06:05:38;100120.0;;;-5.69;100.0
63954;BME280;50128;52.094;5.232;2023-03-15T06:07:14;100124.0;;;-5.62;100.0
63954;BME280;50128;52.094;5.232;2023-03-15T06:08:50;100126.0;;;-5.53;100.0
63954;BME280;50128;52.094;5.232;2023-03-15T06:12:03;100130.0;;;-5.5;100.0
63954;BME280;50128;52.094;5.232;2023-03-15T06:13:39;100133.0;;;-5.47;100.0
63954;BME280;50128;52.094;5.232;2023-03-15T06:15:15;100139.0;;;-5.46;100.0
63954;BME280;50128;52.094;5.232;2023-03-15T06:18:29;100137.0;;;-5.54;100.0
63954;BME280;50128;52.094;5.232;2023-03-15T06:20:06;100135.0;;;-5.68;100.0
63954;BME280;50128;52.094;5.232;2023-03-15T06:21:43;100134.0;;;-5.74;100.0
63954;BME280;50128;52.094;5.232;2023-03-15T06:24:55;100138.0;;;-5.89;100.0
63954;BME280;50128;52.094;5.232;2023-03-15T06:26:31;100140.0;;;-5.73;100.0
63954;BME280;50128;52.094;5.232;2023-03-15T06:28:07;100145.0;;;-5.73;100.0
63954;BME280;50128;52.094;5.232;2023-03-15T06:29:43;100148.0;;;-5.82;100.0
63954;BME280;50128;52.094;5.232;2023-03-15T06:32:56;100155.0;;;-5.87;100.0
63954;BME280;50128;52.094;5.232;2023-03-15T06:34:32;100156.0;;;-5.96;100.0
63954;BME280;50128;52.094;5.232;2023-03-15T06:36:09;100164.0;;;-5.87;100.0
63954;BME280;50128;52.094;5.232;2023-03-15T06:39:22;100168.0;;;-5.83;100.0
63954;BME280;50128;52.094;5.232;2023-03-15T06:40:59;100172.0;;;-5.84;100.0
63954;BME280;50128;52.094;5.232;2023-03-15T06:42:35;100171.0;;;-5.82;100.0
63954;BME280;50128;52.094;5.232;2023-03-15T06:45:49;100180.0;;;-5.8;100.0
63954;BME280;50128;52.094;5.232;2023-03-15T06:47:26;100184.0;;;-5.65;100.0
63954;BME280;50128;52.094;5.232;2023-03-15T06:49:02;100188.0;;;-5.6;100.0
63954;BME280;50128;52.094;5.232;2023-03-15T06:50:38;100191.0;;;-5.49;100.0
63954;BME280;50128;52.094;5.232;2023-03-15T06:53:52;100195.0;;;-5.44;100.0
63954;BME280;50128;52.094;5.232;2023-03-15T06:55:28;100200.0;;;-5.37;100.0
63954;BME280;50128;52.094;5.232;2023-03-15T06:57:06;100203.0;;;-5.47;100.0
63954;BME280;50128;52.094;5.232;2023-03-15T07:00:18;100205.0;;;-5.51;100.0
63954;BME280;50128;52.094;5.232;2023-03-15T07:01:55;100209.0;;;-5.43;100.0
63954;BME280;50128;52.094;5.232;2023-03-15T07:03:31;100214.0;;;-5.52;100.0
63954;BME280;50128;52.094;5.232;2023-03-15T07:06:44;100219.0;;;-5.49;100.0
63954;BME280;50128;52.094;5.232;2023-03-15T07:08:21;100227.0;;;-5.47;100.0
63954;BME280;50128;52.094;5.232;2023-03-15T07:09:59;100223.0;;;-5.51;100.0
63954;BME280;50128;52.094;5.232;2023-03-15T07:11:36;100222.0;;;-5.57;100.0
63954;BME280;50128;52.094;5.232;2023-03-15T07:14:48;100220.0;;;-5.44;100.0
63954;BME280;50128;52.094;5.232;2023-03-15T07:16:24;100222.0;;;-5.47;100.0
63954;BME280;50128;52.094;5.232;2023-03-15T07:18:00;100222.0;;;-5.21;100.0
63954;BME280;50128;52.094;5.232;2023-03-15T07:21:13;100228.0;;;-5.28;100.0
63954;BME280;50128;52.094;5.232;2023-03-15T07:22:49;100232.0;;;-5.36;100.0
63954;BME280;50128;52.094;5.232;2023-03-15T07:24:25;100237.0;;;-5.3;100.0
63954;BME280;50128;52.094;5.232;2023-03-15T07:27:38;100244.0;;;-5.28;100.0
63954;BME280;50128;52.094;5.232;2023-03-15T07:29:14;100245.0;;;-5.28;100.0
63954;BME280;50128;52.094;5.232;2023-03-15T07:30:52;100249.0;;;-5.28;100.0
63954;BME280;50128;52.094;5.232;2023-03-15T07:32:28;100255.0;;;-5.26;100.0
63954;BME280;50128;52.094;5.232;2023-03-15T07:35:40;100255.0;;;-5.13;100.0
63954;BME280;50128;52.094;5.232;2023-03-15T07:37:16;100255.0;;;-4.95;100.0
63954;BME280;50128;52.094;5.232;2023-03-15T07:38:52;100261.0;;;-4.9;100.0
63954;BME280;50128;52.094;5.232;2023-03-15T07:42:04;100269.0;;;-4.94;100.0
63954;BME280;50128;52.094;5.232;2023-03-15T07:43:40;100269.0;;;-4.96;100.0
63954;BME280;50128;52.094;5.232;2023-03-15T07:45:16;100270.0;;;-4.96;100.0
63954;BME280;50128;52.094;5.232;2023-03-15T07:48:28;100276.0;;;-4.92;100.0
63954;BME280;50128;52.094;5.232;2023-03-15T07:50:07;100276.0;;;-4.82;100.0
63954;BME280;50128;52.094;5.232;2023-03-15T07:51:43;100278.0;;;-4.78;100.0
63954;BME280;50128;52.094;5.232;2023-03-15T07:54:56;100282.0;;;-4.72;100.0
63954;BME280;50128;52.094;5.232;2023-03-15T07:56:32;100288.0;;;-4.71;100.0
63954;BME280;50128;52.094;5.232;2023-03-15T07:58:08;100289.0;;;-4.73;100.0
63954;BME280;50128;52.094;5.232;2023-03-15T07:59:44;100293.0;;;-4.74;100.0
63954;BME280;50128;52.094;5.232;2023-03-15T08:02:56;100297.0;;;-4.6;100.0
63954;BME280;50128;52.094;5.232;2023-03-15T08:04:33;100300.0;;;-4.55;100.0
63954;BME280;50128;52.094;5.232;2023-03-15T08:06:10;100305.0;;;-4.49;100.0
63954;BME280;50128;52.094;5.232;2023-03-15T08:09:23;100306.0;;;-4.46;100.0
63954;BME280;50128;52.094;5.232;2023-03-15T08:10:59;100309.0;;;-4.34;100.0
63954;BME280;50128;52.094;5.232;2023-03-15T08:12:35;100313.0;;;-4.38;100.0
63954;BME280;50128;52.094;5.232;2023-03-15T08:15:47;100312.0;;;-4.16;100.0
63954;BME280;50128;52.094;5.232;2023-03-15T08:17:23;100319.0;;;-4.13;100.0
63954;BME280;50128;52.094;5.232;2023-03-15T08:19:00;100318.0;;;-3.91;100.0
63954;BME280;50128;52.094;5.232;2023-03-15T08:20:36;100318.0;;;-3.96;100.0
63954;BME280;50128;52.094;5.232;2023-03-15T08:23:48;100319.0;;;-3.7;100.0
63954;BME280;50128;52.094;5.232;2023-03-15T08:25:24;100320.0;;;-3.47;98.71
63954;BME280;50128;52.094;5.232;2023-03-15T08:27:01;100324.0;;;-3.21;97.82
63954;BME280;50128;52.094;5.232;2023-03-15T08:30:16;100333.0;;;-2.81;95.24
63954;BME280;50128;52.094;5.232;2023-03-15T08:31:53;100332.0;;;-2.62;91.79
63954;BME280;50128;52.094;5.232;2023-03-15T08:33:29;100338.0;;;-2.26;90.25
63954;BME280;50128;52.094;5.232;2023-03-15T08:36:45;100346.0;;;-1.94;89.04
63954;BME280;50128;52.094;5.232;2023-03-15T08:38:21;100342.0;;;-1.83;86.69
63954;BME280;50128;52.094;5.232;2023-03-15T08:39:57;100344.0;;;-1.98;85.94
63954;BME280;50128;52.094;5.232;2023-03-15T08:41:33;100348.0;;;-1.91;84.25
63954;BME280;50128;52.094;5.232;2023-03-15T08:44:46;100347.0;;;-1.69;82.79
63954;BME280;50128;52.094;5.232;2023-03-15T08:46:22;100352.0;;;-1.5;78.97
63954;BME280;50128;52.094;5.232;2023-03-15T08:47:59;100353.0;;;-1.43;77.24
63954;BME280;50128;52.094;5.232;2023-03-15T08:51:11;100353.0;;;-1.37;80.58
63954;BME280;50128;52.094;5.232;2023-03-15T08:52:47;100355.0;;;-1.46;81.38
63954;BME280;50128;52.094;5.232;2023-03-15T08:57:36;100350.0;;;-1.42;80.97
63954;BME280;50128;52.094;5.232;2023-03-15T08:59:13;100349.0;;;-1.12;86.19
63954;BME280;50128;52.094;5.232;2023-03-15T09:00:49;100357.0;;;-1.15;82.05
63954;BME280;50128;52.094;5.232;2023-03-15T09:02:26;100356.0;;;-0.65;81.77
63954;BME280;50128;52.094;5.232;2023-03-15T09:05:39;100355.0;;;-0.75;79.12
63954;BME280;50128;52.094;5.232;2023-03-15T09:07:15;100353.0;;;-0.95;76.52
63954;BME280;50128;52.094;5.232;2023-03-15T09:08:52;100358.0;;;-1.22;75.09
63954;BME280;50128;52.094;5.232;2023-03-15T09:12:04;100358.0;;;-0.9;81.42
63954;BME280;50128;52.094;5.232;2023-03-15T09:13:40;100359.0;;;-1.02;75.74
63954;BME280;50128;52.094;5.232;2023-03-15T09:15:16;100359.0;;;-0.99;78.52
63954;BME280;50128;52.094;5.232;2023-03-15T09:18:29;100360.0;;;-0.83;79.41
63954;BME280;50128;52.094;5.232;2023-03-15T09:20:07;100355.0;;;-0.9;76.16
63954;BME280;50128;52.094;5.232;2023-03-15T09:21:44;100355.0;;;-0.9;77.27
63954;BME280;50128;52.094;5.232;2023-03-15T09:24:56;100355.0;;;-0.61;78.77
63954;BME280;50128;52.094;5.232;2023-03-15T09:26:33;100346.0;;;-0.42;75.8
63954;BME280;50128;52.094;5.232;2023-03-15T09:28:10;100347.0;;;-0.63;76.88
63954;BME280;50128;52.094;5.232;2023-03-15T09:29:46;100346.0;;;-0.66;77.05
63954;BME280;50128;52.094;5.232;2023-03-15T09:32:58;100355.0;;;-0.32;76.55
63954;BME280;50128;52.094;5.232;2023-03-15T09:34:35;100355.0;;;-0.5;76.34
63954;BME280;50128;52.094;5.232;2023-03-15T09:36:11;100355.0;;;-0.49;79.33
63954;BME280;50128;52.094;5.232;2023-03-15T09:39:25;100350.0;;;-0.25;80.3
63954;BME280;50128;52.094;5.232;2023-03-15T09:41:01;100359.0;;;-0.19;74.99
63954;BME280;50128;52.094;5.232;2023-03-15T09:42:44;100365.0;;;-0.19;73.53
63954;BME280;50128;52.094;5.232;2023-03-15T09:44:37;100362.0;;;-0.24;75.19
63954;BME280;50128;52.094;5.232;2023-03-15T09:48:07;100368.0;;;-0.52;71.7
63954;BME280;50128;52.094;5.232;2023-03-15T09:49:48;100358.0;;;-0.6;75.05
63954;BME280;50128;52.094;5.232;2023-03-15T09:51:32;100363.0;;;-0.8;76.42
63954;BME280;50128;52.094;5.232;2023-03-15T09:53:15;100365.0;;;-0.75;73.56
63954;BME280;50128;52.094;5.232;2023-03-15T09:54:57;100360.0;;;-0.66;74.5
63954;BME280;50128;52.094;5.232;2023-03-15T09:58:17;100366.0;;;-0.77;73.03
63954;BME280;50128;52.094;5.232;2023-03-15T09:59:57;100363.0;;;-0.79;69.58
63954;BME280;50128;52.094;5.232;2023-03-15T10:01:36;100366.0;;;-0.6;72.08
63954;BME280;50128;52.094;5.232;2023-03-15T10:03:18;100365.0;;;-0.35;74.0
63954;BME280;50128;52.094;5.232;2023-03-15T10:06:43;100364.0;;;-0.25;65.88
63954;BME280;50128;52.094;5.232;2023-03-15T10:08:25;100362.0;;;-0.15;65.88
63954;BME280;50128;52.094;5.232;2023-03-15T10:10:02;100357.0;;;-0.06;63.49
63954;BME280;50128;52.094;5.232;2023-03-15T10:11:46;100360.0;;;-0.11;65.27
63954;BME280;50128;52.094;5.232;2023-03-15T10:15:31;100356.0;;;0.08;63.53
63954;BME280;50128;52.094;5.232;2023-03-15T10:17:18;100357.0;;;0.13;66.27
63954;BME280;50128;52.094;5.232;2023-03-15T10:19:04;100370.0;;;0.17;68.67
63954;BME280;50128;52.094;5.232;2023-03-15T10:20:45;100361.0;;;0.2;65.31
63954;BME280;50128;52.094;5.232;2023-03-15T10:22:29;100360.0;;;0.26;69.52
63954;BME280;50128;52.094;5.232;2023-03-15T10:24:16;100363.0;;;0.21;67.31
63954;BME280;50128;52.094;5.232;2023-03-15T10:27:32;100367.0;;;0.08;65.63
63954;BME280;50128;52.094;5.232;2023-03-15T10:29:14;100362.0;;;0.35;67.08
63954;BME280;50128;52.094;5.232;2023-03-15T10:30:56;100369.0;;;0.35;66.16
63954;BME280;50128;52.094;5.232;2023-03-15T10:32:37;100364.0;;;0.26;64.02
63954;BME280;50128;52.094;5.232;2023-03-15T10:35:53;100367.0;;;0.54;62.43
63954;BME280;50128;52.094;5.232;2023-03-15T10:37:30;100375.0;;;0.59;66.41
63954;BME280;50128;52.094;5.232;2023-03-15T10:39:08;100376.0;;;0.39;61.14
63954;BME280;50128;52.094;5.232;2023-03-15T10:40:46;100378.0;;;0.47;63.55
63954;BME280;50128;52.094;5.232;2023-03-15T10:44:11;100383.0;;;0.31;64.08
63954;BME280;50128;52.094;5.232;2023-03-15T10:46:00;100386.0;;;0.36;64.28
63954;BME280;50128;52.094;5.232;2023-03-15T10:47:40;100384.0;;;0.6;62.57
63954;BME280;50128;52.094;5.232;2023-03-15T10:49:18;100387.0;;;0.72;63.32
63954;BME280;50128;52.094;5.232;2023-03-15T10:52:33;100392.0;;;0.58;60.35
63954;BME280;50128;52.094;5.232;2023-03-15T10:54:12;100399.0;;;0.6;59.01
63954;BME280;50128;52.094;5.232;2023-03-15T10:55:58;100398.0;;;0.48;58.12
63954;BME280;50128;52.094;5.232;2023-03-15T10:57:38;100406.0;;;0.8;60.16
63954;BME280;50128;52.094;5.232;2023-03-15T11:01:00;100405.0;;;0.82;59.84
63954;BME280;50128;52.094;5.232;2023-03-15T11:02:47;100411.0;;;0.89;58.31
63954;BME280;50128;52.094;5.232;2023-03-15T11:04:25;100400.0;;;1.13;61.0
63954;BME280;50128;52.094;5.232;2023-03-15T11:06:18;100399.0;;;1.22;61.06
63954;BME280;50128;52.094;5.232;2023-03-15T11:09:38;100409.0;;;1.07;57.25
63954;BME280;50128;52.094;5.232;2023-03-15T11:11:15;100415.0;;;1.08;54.16
63954;BME280;50128;52.094;5.232;2023-03-15T11:13:09;100426.0;;;1.12;55.97
63954;BME280;50128;52.094;5.232;2023-03-15T11:14:47;100424.0;;;1.28;58.28
63954;BME280;50128;52.094;5.232;2023-03-15T11:16:34;100425.0;;;1.3;55.19